createdAt,value
2018-12-02T00:00:19.065Z,43.50
2018-12-02T00:02:46.406Z,59.77
2018-12-02T00:05:13.729Z,46.88
2018-12-02T00:07:41.043Z,40.00
2018-12-02T00:10:09.999Z,47.58
2018-12-02T00:12:37.399Z,47.27
2018-12-02T00:15:08.707Z,50.20
2018-12-02T00:17:36.011Z,38.92
2018-12-02T00:20:03.891Z,36.45
2018-12-02T00:22:31.166Z,40.48
2018-12-02T00:24:58.498Z,42.90
2018-12-02T00:27:25.810Z,38.13
2018-12-02T00:29:53.121Z,49.70
2018-12-02T00:32:20.412Z,34.20
2018-12-02T00:34:47.723Z,37.70
2018-12-02T00:37:15.040Z,39.80
2018-12-02T00:39:42.326Z,42.13
2018-12-02T00:42:09.683Z,30.52
2018-12-02T00:44:36.958Z,33.45
2018-12-02T00:47:04.282Z,38.35
2018-12-02T00:49:31.556Z,33.98
2018-12-02T00:51:58.946Z,29.92
2018-12-02T00:54:26.211Z,36.40
2018-12-02T00:56:53.520Z,35.28
2018-12-02T00:59:20.832Z,29.85
2018-12-02T01:01:48.160Z,35.75
2018-12-02T01:04:15.485Z,32.03
2018-12-02T01:06:42.770Z,29.00
2018-12-02T01:09:10.074Z,29.65
2018-12-02T01:11:37.401Z,32.03
2018-12-02T01:14:04.872Z,26.62
2018-12-02T01:16:32.166Z,28.00
2018-12-02T01:18:59.452Z,37.73
2018-12-02T01:21:26.736Z,29.82
2018-12-02T01:23:54.064Z,28.47
2018-12-02T01:26:21.390Z,27.87
2018-12-02T01:28:48.671Z,31.37
2018-12-02T01:31:15.993Z,30.85
2018-12-02T01:33:43.259Z,32.08
2018-12-02T01:36:10.667Z,29.15
2018-12-02T01:38:37.996Z,35.20
2018-12-02T01:41:05.471Z,31.60
2018-12-02T01:43:32.904Z,34.25
2018-12-02T01:46:00.195Z,38.17
2018-12-02T01:48:27.485Z,37.30
2018-12-02T01:50:54.760Z,31.73
2018-12-02T01:53:22.047Z,41.77
2018-12-02T01:55:49.343Z,36.28
2018-12-02T01:58:16.612Z,37.98
2018-12-02T02:00:43.882Z,36.00
2018-12-02T02:03:11.172Z,40.58
2018-12-02T02:05:38.499Z,34.03
2018-12-02T02:08:06.033Z,39.35
2018-12-02T02:10:33.365Z,35.68
2018-12-02T02:13:00.692Z,30.70
2018-12-02T02:15:28.006Z,37.15
2018-12-02T02:17:55.319Z,38.02
2018-12-02T02:20:23.447Z,40.65
2018-12-02T02:22:50.836Z,39.83
2018-12-02T02:25:18.857Z,36.13
2018-12-02T02:27:47.353Z,34.43
2018-12-02T02:30:15.685Z,38.42
2018-12-02T02:32:43.047Z,38.55
2018-12-02T02:35:10.759Z,35.60
2018-12-02T02:37:38.189Z,31.77
2018-12-02T02:40:17.264Z,38.08
2018-12-02T02:42:44.608Z,32.35
2018-12-02T02:45:12.613Z,36.90
2018-12-02T02:47:39.927Z,34.25
2018-12-02T02:50:09.935Z,35.75
2018-12-02T02:52:37.367Z,42.13
2018-12-02T02:55:04.825Z,33.45
2018-12-02T02:57:32.116Z,32.42
2018-12-02T02:59:59.420Z,33.98
2018-12-02T03:02:26.742Z,34.45
2018-12-02T03:04:54.035Z,32.48
2018-12-02T03:07:21.292Z,33.50
2018-12-02T03:09:48.551Z,32.78
2018-12-02T03:12:15.850Z,33.38
2018-12-02T03:14:43.121Z,32.65
2018-12-02T03:17:10.431Z,33.28
2018-12-02T03:19:37.707Z,32.30
2018-12-02T03:22:05.306Z,32.25
2018-12-02T03:24:32.597Z,38.30
2018-12-02T03:26:59.875Z,35.38
2018-12-02T03:29:27.153Z,36.73
2018-12-02T03:31:54.424Z,36.55
2018-12-02T03:34:21.737Z,32.20
2018-12-02T03:36:49.034Z,28.27
2018-12-02T03:39:16.302Z,29.87
2018-12-02T03:41:43.622Z,32.15
2018-12-02T03:44:10.888Z,30.82
2018-12-02T03:46:38.190Z,36.08
2018-12-02T03:49:05.504Z,29.87
2018-12-02T03:51:32.819Z,30.20
2018-12-02T03:54:00.089Z,29.12
2018-12-02T03:56:27.357Z,33.13
2018-12-02T03:58:54.660Z,44.98
2018-12-02T04:01:21.956Z,43.17
2018-12-02T04:03:49.283Z,41.48
2018-12-02T04:06:16.539Z,39.95
2018-12-02T04:08:43.843Z,36.08
2018-12-02T04:11:11.135Z,30.37
2018-12-02T04:13:38.427Z,36.13
2018-12-02T04:16:05.928Z,35.48
2018-12-02T04:18:33.225Z,30.82
2018-12-02T04:21:00.507Z,26.75
2018-12-02T04:23:27.803Z,29.42
2018-12-02T04:25:55.135Z,31.20
2018-12-02T04:28:22.403Z,26.93
2018-12-02T04:30:49.709Z,26.12
2018-12-02T04:33:17.007Z,28.07
2018-12-02T04:35:44.309Z,29.98
2018-12-02T04:38:11.580Z,31.65
2018-12-02T04:40:38.891Z,25.08
2018-12-02T04:43:06.192Z,25.17
2018-12-02T04:45:33.479Z,21.33
2018-12-02T04:48:00.755Z,17.92
2018-12-02T04:50:28.025Z,24.60
2018-12-02T04:52:55.319Z,23.77
2018-12-02T04:55:22.617Z,18.92
2018-12-02T04:57:49.946Z,19.90
2018-12-02T05:00:18.057Z,19.95
2018-12-02T05:02:47.239Z,24.35
2018-12-02T05:05:15.859Z,25.70
2018-12-02T05:07:43.174Z,23.90
2018-12-02T05:10:12.421Z,23.05
2018-12-02T05:12:40.029Z,23.42
2018-12-02T05:15:10.001Z,24.52
2018-12-02T05:17:37.275Z,28.60
2018-12-02T05:20:06.981Z,45.98
2018-12-02T05:22:34.282Z,37.10
2018-12-02T05:25:01.555Z,40.88
2018-12-02T05:27:28.843Z,31.87
2018-12-02T05:29:56.140Z,38.13
2018-12-02T05:32:23.443Z,31.30
2018-12-02T05:34:50.732Z,23.80
2018-12-02T05:37:18.018Z,51.53
2018-12-02T05:39:45.292Z,40.78
2018-12-02T05:42:18.168Z,37.65
2018-12-02T05:44:45.472Z,35.90
2018-12-02T05:47:12.766Z,22.93
2018-12-02T05:49:40.048Z,36.70
2018-12-02T05:52:07.334Z,45.70
2018-12-02T05:54:34.608Z,44.83
2018-12-02T05:57:01.952Z,41.33
2018-12-02T05:59:29.226Z,41.28
2018-12-02T06:01:56.490Z,29.32
2018-12-02T06:04:23.767Z,27.20
2018-12-02T06:06:51.153Z,27.32
2018-12-02T06:09:18.450Z,24.15
2018-12-02T06:11:45.754Z,19.90
2018-12-02T06:14:13.038Z,24.02
2018-12-02T06:16:40.328Z,18.95
2018-12-02T06:19:07.642Z,19.05
2018-12-02T06:21:34.933Z,23.22
2018-12-02T06:24:02.208Z,18.85
2018-12-02T06:26:29.460Z,22.67
2018-12-02T06:28:56.738Z,23.30
2018-12-02T06:31:24.023Z,17.98
2018-12-02T06:33:51.332Z,22.90
2018-12-02T06:36:18.607Z,22.95
2018-12-02T06:38:45.884Z,22.98
2018-12-02T06:41:13.173Z,22.10
2018-12-02T06:43:40.433Z,21.07
2018-12-02T06:46:07.727Z,18.42
2018-12-02T06:48:41.623Z,22.13
2018-12-02T06:51:08.909Z,18.92
2018-12-02T06:53:36.190Z,26.30
2018-12-02T06:56:24.607Z,18.57
2018-12-02T06:59:21.106Z,15.30
2018-12-02T07:01:57.367Z,15.88
2018-12-02T07:04:29.441Z,13.72
2018-12-02T07:06:57.194Z,17.20
2018-12-02T07:09:24.488Z,19.85
2018-12-02T07:11:51.784Z,15.88
2018-12-02T07:14:19.105Z,14.85
2018-12-02T07:16:46.426Z,18.12
2018-12-02T07:22:52.533Z,20.12
2018-12-02T07:25:22.357Z,19.45
2018-12-02T07:27:49.697Z,16.93
2018-12-02T07:30:17.287Z,18.60
2018-12-02T07:32:44.603Z,24.52
2018-12-02T07:35:13.037Z,26.50
2018-12-02T07:37:42.080Z,31.65
2018-12-02T07:40:42.120Z,26.45
2018-12-02T07:43:10.665Z,22.30
2018-12-02T07:45:38.010Z,18.50
2018-12-02T07:48:05.479Z,23.27
2018-12-02T07:50:32.809Z,25.57
2018-12-02T07:53:00.085Z,22.37
2018-12-02T07:55:27.452Z,17.75
2018-12-02T07:57:54.746Z,17.42
2018-12-02T08:00:22.060Z,16.90
2018-12-02T08:02:49.355Z,14.50
2018-12-02T08:05:17.079Z,11.70
2018-12-02T08:07:45.636Z,15.75
2018-12-02T08:10:14.896Z,14.65
2018-12-02T08:12:42.235Z,13.15
2018-12-02T08:15:11.487Z,13.85
2018-12-02T08:17:38.836Z,13.78
2018-12-02T08:20:08.760Z,17.27
2018-12-02T08:22:36.078Z,12.37
2018-12-02T08:25:03.485Z,11.50
2018-12-02T08:27:30.839Z,19.23
2018-12-02T08:29:58.122Z,17.90
2018-12-02T08:32:25.434Z,16.55
2018-12-02T08:34:52.748Z,13.32
2018-12-02T08:37:20.037Z,13.58
2018-12-02T08:39:47.379Z,16.95
2018-12-02T08:42:14.700Z,15.75
2018-12-02T08:44:42.028Z,8.68
2018-12-02T08:47:09.311Z,15.32
2018-12-02T08:49:36.590Z,12.20
2018-12-02T08:52:03.877Z,17.00
2018-12-02T08:54:31.233Z,18.55
2018-12-02T08:56:58.527Z,20.37
2018-12-02T08:59:26.389Z,15.58
2018-12-02T09:01:53.803Z,19.67
2018-12-02T09:04:21.104Z,27.82
2018-12-02T09:06:48.407Z,19.07
2018-12-02T09:09:15.702Z,25.97
2018-12-02T09:11:43.067Z,26.12
2018-12-02T09:14:10.325Z,22.70
2018-12-02T09:16:37.708Z,21.00
2018-12-02T09:19:05.725Z,50.28
2018-12-02T09:21:33.132Z,22.42
2018-12-02T09:24:00.476Z,20.30
2018-12-02T09:26:27.817Z,16.73
2018-12-02T09:28:55.100Z,16.65
2018-12-02T09:31:22.388Z,19.10
2018-12-02T09:33:49.696Z,20.30
2018-12-02T09:36:17.025Z,17.17
2018-12-02T09:38:44.352Z,18.02
2018-12-02T09:41:11.642Z,13.25
2018-12-02T09:43:39.161Z,21.40
2018-12-02T09:46:06.531Z,14.78
2018-12-02T09:48:33.798Z,17.12
2018-12-02T09:51:01.123Z,17.00
2018-12-02T09:53:28.431Z,14.93
2018-12-02T09:55:55.752Z,20.40
2018-12-02T09:58:26.767Z,15.70
2018-12-02T10:00:55.495Z,12.43
2018-12-02T10:03:22.829Z,16.25
2018-12-02T10:05:50.142Z,15.23
2018-12-02T10:08:17.502Z,16.82
2018-12-02T10:10:44.839Z,17.20
2018-12-02T10:13:13.882Z,16.85
2018-12-02T10:15:42.264Z,17.67
2018-12-02T10:18:09.648Z,22.07
2018-12-02T10:20:37.041Z,15.23
2018-12-02T10:23:04.588Z,16.37
2018-12-02T10:25:31.968Z,23.10
2018-12-02T10:27:59.307Z,34.45
2018-12-02T10:30:26.672Z,35.38
2018-12-02T10:32:55.125Z,25.82
2018-12-02T10:35:22.478Z,22.98
2018-12-02T10:37:50.293Z,22.98
2018-12-02T10:40:18.493Z,18.67
2018-12-02T10:42:46.081Z,23.25
2018-12-02T10:45:19.314Z,266.60
2018-12-02T10:47:46.992Z,152.35
2018-12-02T10:50:17.478Z,58.92
2018-12-02T10:52:52.447Z,61.88
2018-12-02T10:55:31.434Z,54.05
2018-12-02T10:57:58.808Z,47.50
2018-12-02T11:00:31.721Z,33.23
2018-12-02T11:02:59.088Z,36.77
2018-12-02T11:05:26.441Z,18.50
2018-12-02T11:07:53.802Z,17.00
2018-12-02T11:10:21.159Z,13.90
2018-12-02T11:12:48.562Z,20.67
2018-12-02T11:15:16.305Z,16.67
2018-12-02T11:17:44.514Z,13.40
2018-12-02T11:20:13.236Z,22.83
2018-12-02T11:22:40.648Z,23.30
2018-12-02T11:25:10.171Z,25.70
2018-12-02T11:27:37.591Z,17.30
2018-12-02T11:30:09.239Z,14.73
2018-12-02T11:32:36.641Z,115.30
2018-12-02T11:35:04.344Z,48.35
2018-12-02T11:37:31.709Z,37.65
2018-12-02T11:39:59.203Z,25.12
2018-12-02T11:42:26.545Z,47.43
2018-12-02T11:44:53.914Z,30.25
2018-12-02T11:47:21.309Z,24.37
2018-12-02T11:49:48.712Z,25.90
2018-12-02T11:52:16.085Z,28.73
2018-12-02T11:54:43.482Z,27.87
2018-12-02T11:57:10.881Z,31.30
2018-12-02T11:59:38.259Z,18.73
2018-12-02T12:02:07.773Z,35.73
2018-12-02T12:04:33.181Z,28.67
2018-12-02T12:07:00.556Z,16.55
2018-12-02T12:09:27.957Z,22.20
2018-12-02T12:11:55.323Z,15.05
2018-12-02T12:14:22.730Z,16.50
2018-12-02T12:16:50.190Z,12.93
2018-12-02T12:19:17.574Z,14.40
2018-12-02T12:21:44.964Z,16.52
2018-12-02T12:24:13.381Z,13.85
2018-12-02T12:26:40.777Z,12.98
2018-12-02T12:29:08.271Z,14.98
2018-12-02T12:31:35.711Z,13.40
2018-12-02T12:34:03.216Z,11.85
2018-12-02T12:36:30.587Z,12.40
2018-12-02T12:38:58.045Z,16.87
2018-12-02T12:41:25.488Z,9.63
2018-12-02T12:43:52.901Z,9.35
2018-12-02T12:46:20.295Z,6.40
2018-12-02T12:48:48.338Z,6.35
2018-12-02T12:51:15.754Z,6.65
2018-12-02T12:53:43.456Z,6.15
2018-12-02T12:56:10.882Z,8.53
2018-12-02T12:58:38.351Z,8.28
2018-12-02T13:01:06.114Z,8.95
2018-12-02T13:03:33.504Z,7.95
2018-12-02T13:06:00.940Z,6.62
2018-12-02T13:08:28.331Z,6.55
2018-12-02T13:10:55.786Z,8.45
2018-12-02T13:13:24.214Z,9.55
2018-12-02T13:15:51.609Z,7.22
2018-12-02T13:18:19.032Z,12.13
2018-12-02T13:20:49.680Z,15.85
2018-12-02T13:23:17.092Z,12.70
2018-12-02T13:25:44.503Z,7.53
2018-12-02T13:28:11.881Z,8.13
2018-12-02T13:30:39.298Z,12.13
2018-12-02T13:33:07.159Z,13.20
2018-12-02T13:35:35.037Z,18.37
2018-12-02T13:38:02.436Z,22.30
2018-12-02T13:40:29.872Z,20.70
2018-12-02T13:43:02.734Z,15.65
2018-12-02T13:45:31.135Z,12.55
2018-12-02T13:47:58.549Z,7.85
2018-12-02T13:50:27.068Z,9.35
2018-12-02T13:52:55.781Z,9.25
2018-12-02T13:55:25.169Z,9.75
2018-12-02T13:57:52.575Z,11.73
2018-12-02T14:00:21.921Z,13.28
2018-12-02T14:02:53.525Z,11.12
2018-12-02T14:05:21.271Z,10.82
2018-12-02T14:07:48.696Z,26.57
2018-12-02T14:10:16.086Z,14.55
2018-12-02T14:12:50.721Z,22.13
2018-12-02T14:15:25.411Z,15.32
2018-12-02T14:17:55.921Z,17.70
2018-12-02T14:20:23.307Z,16.85
2018-12-02T14:22:50.703Z,14.23
2018-12-02T14:25:18.101Z,11.85
2018-12-02T14:27:46.971Z,20.77
2018-12-02T14:30:17.027Z,18.17
2018-12-02T14:32:44.505Z,14.73
2018-12-02T14:35:11.990Z,14.13
2018-12-02T14:37:39.699Z,15.65
2018-12-02T14:40:09.080Z,18.40
2018-12-02T14:42:36.843Z,16.87
2018-12-02T14:45:07.983Z,18.62
2018-12-02T14:47:36.286Z,25.52
2018-12-02T14:50:04.873Z,14.28
2018-12-02T14:52:32.284Z,18.55
2018-12-02T14:55:00.304Z,19.67
2018-12-02T14:57:27.708Z,17.55
2018-12-02T14:59:55.436Z,19.55
2018-12-02T15:02:22.808Z,16.95
2018-12-02T15:04:50.223Z,16.95
2018-12-02T15:07:17.649Z,16.10
2018-12-02T15:09:45.346Z,16.25
2018-12-02T15:12:12.801Z,17.20
2018-12-02T15:14:40.307Z,14.55
2018-12-02T15:17:07.778Z,21.62
2018-12-02T15:19:35.184Z,17.77
2018-12-02T15:22:02.629Z,22.07
2018-12-02T15:24:30.004Z,18.02
2018-12-02T15:26:57.424Z,20.88
2018-12-02T15:29:31.432Z,17.77
2018-12-02T15:31:58.968Z,18.37
2018-12-02T15:34:26.354Z,63.83
2018-12-02T15:36:53.781Z,22.27
2018-12-02T15:39:21.163Z,23.87
2018-12-02T15:41:48.771Z,46.70
2018-12-02T15:44:16.168Z,29.00
2018-12-02T15:46:43.525Z,17.42
2018-12-02T15:49:11.679Z,26.50
2018-12-02T15:51:39.790Z,24.67
2018-12-02T15:54:07.214Z,29.02
2018-12-02T15:56:34.866Z,29.52
2018-12-02T15:59:07.033Z,33.33
2018-12-02T16:01:34.721Z,37.67
2018-12-02T16:04:02.088Z,16.62
2018-12-02T16:06:29.506Z,8.85
2018-12-02T16:08:56.970Z,7.33
2018-12-02T16:11:24.624Z,7.67
2018-12-02T16:13:53.061Z,8.63
2018-12-02T16:16:20.509Z,4.58
2018-12-02T16:18:48.986Z,6.03
2018-12-02T16:21:16.466Z,12.88
2018-12-02T16:23:43.898Z,18.87
2018-12-02T16:26:11.313Z,23.52
2018-12-02T16:28:38.996Z,11.75
2018-12-02T16:31:06.509Z,12.20
2018-12-02T16:33:33.932Z,14.60
2018-12-02T16:36:01.405Z,11.18
2018-12-02T16:38:28.825Z,8.98
2018-12-02T16:40:56.256Z,6.50
2018-12-02T16:43:23.693Z,8.93
2018-12-02T16:45:51.113Z,7.72
2018-12-02T16:48:18.548Z,10.72
2018-12-02T16:50:47.548Z,12.58
2018-12-02T16:53:19.509Z,10.72
2018-12-02T16:55:55.524Z,10.93
2018-12-02T16:59:34.418Z,9.03
2018-12-02T17:02:05.215Z,4.95
2018-12-02T17:04:32.000Z,8.33
2018-12-02T17:06:59.455Z,8.65
2018-12-02T17:09:26.984Z,9.03
2018-12-02T17:11:54.600Z,6.25
2018-12-02T17:14:22.064Z,10.03
2018-12-02T17:16:49.652Z,4.83
2018-12-02T17:19:17.949Z,7.60
2018-12-02T17:21:46.355Z,8.75
2018-12-02T17:24:14.425Z,13.78
2018-12-02T17:26:41.978Z,11.15
2018-12-02T17:29:12.102Z,7.05
2018-12-02T17:31:56.180Z,13.08
2018-12-02T17:34:24.364Z,9.38
2018-12-02T17:36:51.753Z,7.08
2018-12-02T17:39:24.023Z,6.47
2018-12-02T17:41:57.310Z,4.97
2018-12-02T17:44:24.729Z,8.15
2018-12-02T17:46:52.168Z,18.32
2018-12-02T17:49:20.532Z,7.35
2018-12-02T17:51:48.063Z,8.83
2018-12-02T17:54:15.503Z,7.60
2018-12-02T17:56:44.033Z,13.38
2018-12-02T17:59:11.491Z,7.10
2018-12-02T18:01:38.942Z,9.03
2018-12-02T18:04:07.043Z,8.80
2018-12-02T18:06:35.238Z,8.65
2018-12-02T18:09:02.849Z,6.60
2018-12-02T18:11:30.421Z,5.15
2018-12-02T18:13:57.944Z,6.70
2018-12-02T18:16:25.482Z,13.13
2018-12-02T18:18:53.105Z,4.92
2018-12-02T18:21:20.632Z,6.17
2018-12-02T18:23:49.518Z,6.28
2018-12-02T18:26:17.620Z,6.27
2018-12-02T18:28:45.114Z,8.60
2018-12-02T18:31:12.737Z,6.57
2018-12-02T18:33:40.518Z,6.47
2018-12-02T18:36:14.284Z,5.80
2018-12-02T18:38:43.288Z,5.33
2018-12-02T18:41:22.205Z,12.33
2018-12-02T18:43:49.769Z,5.75
2018-12-02T18:46:18.252Z,8.58
2018-12-02T18:48:45.780Z,8.40
2018-12-02T18:51:13.667Z,17.42
2018-12-02T18:53:41.992Z,18.17
2018-12-02T18:56:09.669Z,17.37
2018-12-02T18:58:37.154Z,16.65
2018-12-02T19:01:04.901Z,11.10
2018-12-02T19:03:33.056Z,10.77
2018-12-02T19:06:00.643Z,5.28
2018-12-02T19:08:28.309Z,7.87
2018-12-02T19:10:57.322Z,10.45
2018-12-02T19:13:25.373Z,30.62
2018-12-02T19:15:52.934Z,39.83
2018-12-02T19:18:20.978Z,31.03
2018-12-02T19:20:49.666Z,16.63
2018-12-02T19:23:32.891Z,23.80
2018-12-02T19:26:00.395Z,26.85
2018-12-02T19:28:27.822Z,14.83
2018-12-02T19:30:55.430Z,19.23
2018-12-02T19:33:24.210Z,24.50
2018-12-02T19:35:55.254Z,9.98
2018-12-02T19:38:24.123Z,12.78
2018-12-02T19:40:51.880Z,8.00
2018-12-02T19:43:19.462Z,8.58
2018-12-02T19:45:49.146Z,15.63
2018-12-02T19:48:16.754Z,60.33
2018-12-02T19:50:44.355Z,64.70
2018-12-02T19:53:11.845Z,49.90
2018-12-02T19:55:39.904Z,37.03
2018-12-02T19:58:09.579Z,23.20
2018-12-02T20:00:40.970Z,12.50
2018-12-02T20:03:09.048Z,8.37
2018-12-02T20:05:37.218Z,14.80
2018-12-02T20:08:05.181Z,4.67
2018-12-02T20:10:33.585Z,4.83
2018-12-02T20:13:06.846Z,5.95
2018-12-02T20:15:35.581Z,2.97
2018-12-02T20:18:03.353Z,6.83
2018-12-02T20:20:38.248Z,6.17
2018-12-02T20:23:06.461Z,5.67
2018-12-02T20:25:34.208Z,4.20
2018-12-02T20:28:03.467Z,11.10
2018-12-02T20:30:32.334Z,5.00
2018-12-02T20:33:00.443Z,6.53
2018-12-02T20:35:27.983Z,5.03
2018-12-02T20:37:55.789Z,4.50
2018-12-02T20:40:24.364Z,14.00
2018-12-02T20:42:51.822Z,5.20
2018-12-02T20:45:19.363Z,3.90
2018-12-02T20:47:46.855Z,3.87
2018-12-02T20:50:16.409Z,3.20
2018-12-02T20:52:44.233Z,3.83
2018-12-02T20:55:19.852Z,6.20
2018-12-02T20:57:47.682Z,8.37
2018-12-02T21:00:18.047Z,3.90
2018-12-02T21:02:57.515Z,7.17
2018-12-02T21:05:33.066Z,4.80
2018-12-02T21:08:01.107Z,5.30
2018-12-02T21:10:28.563Z,4.60
2018-12-02T21:12:56.572Z,5.50
2018-12-02T21:15:23.944Z,3.40
2018-12-02T21:17:51.368Z,2.87
2018-12-02T21:20:18.818Z,4.50
2018-12-02T21:22:46.199Z,4.70
2018-12-02T21:25:20.848Z,3.90
2018-12-02T21:27:49.144Z,6.43
2018-12-02T21:30:19.264Z,6.37
2018-12-02T21:32:46.679Z,5.13
2018-12-02T21:35:14.102Z,2.97
2018-12-02T21:37:41.737Z,3.80
2018-12-02T21:40:14.068Z,5.73
2018-12-02T21:42:41.841Z,8.47
2018-12-02T21:45:11.194Z,5.27
2018-12-02T21:47:39.797Z,5.33
2018-12-02T21:50:09.854Z,8.50
2018-12-02T21:52:37.202Z,3.87
2018-12-02T21:55:05.188Z,3.20
2018-12-02T21:57:32.615Z,3.23
2018-12-02T22:00:00.033Z,3.97
2018-12-02T22:02:27.376Z,3.97
2018-12-02T22:04:54.728Z,4.60
2018-12-02T22:07:22.045Z,3.33
2018-12-02T22:09:49.427Z,3.90
2018-12-02T22:12:16.801Z,3.80
2018-12-02T22:14:44.125Z,3.00
2018-12-02T22:17:11.537Z,6.70
2018-12-02T22:19:38.870Z,4.03
2018-12-02T22:22:06.331Z,2.33
2018-12-02T22:24:33.720Z,4.00
2018-12-02T22:27:01.058Z,4.67
2018-12-02T22:29:28.395Z,3.03
2018-12-02T22:31:55.718Z,4.47
2018-12-02T22:34:23.065Z,2.53
2018-12-02T22:36:50.385Z,2.73
2018-12-02T22:39:17.676Z,3.20
2018-12-02T22:41:44.977Z,4.00
2018-12-02T22:44:12.304Z,4.63
2018-12-02T22:46:39.623Z,4.37
2018-12-02T22:49:06.943Z,3.00
2018-12-02T22:51:34.306Z,3.87
2018-12-02T22:54:01.592Z,5.47
2018-12-02T22:56:28.934Z,5.27
2018-12-02T22:58:56.338Z,6.63
2018-12-02T23:01:29.328Z,9.00
2018-12-02T23:03:56.698Z,6.40
2018-12-02T23:06:24.086Z,8.07
2018-12-02T23:08:51.467Z,7.00
2018-12-02T23:11:18.817Z,5.67
2018-12-02T23:13:46.191Z,7.63
2018-12-02T23:16:13.548Z,6.63
2018-12-02T23:18:40.884Z,7.50
2018-12-02T23:21:08.217Z,5.63
2018-12-02T23:23:35.485Z,5.07
2018-12-02T23:26:02.792Z,4.00
2018-12-02T23:28:30.085Z,5.13
2018-12-02T23:30:57.414Z,4.43
2018-12-02T23:33:24.745Z,5.40
2018-12-02T23:35:52.059Z,3.87
2018-12-02T23:38:19.375Z,2.40
2018-12-02T23:40:46.717Z,2.80
2018-12-02T23:43:14.049Z,2.60
2018-12-02T23:45:41.422Z,2.30
2018-12-02T23:48:08.749Z,3.33
2018-12-02T23:50:36.112Z,3.07
2018-12-02T23:53:03.479Z,7.80
2018-12-02T23:55:30.796Z,2.83
2018-12-02T23:57:58.095Z,5.20
